Time;durP1;ratioP1;P1;durP2;ratioP2;P2;SDS_P1;SDS_P2;PMS_P1;PMS_P2;Temp;Humidity;BMP_temperature;BMP_pressure;BME280_temperature;BME280_humidity;BME280_pressure;Samples;Min_cycle;Max_cycle;Signal;HPM_P1;HPM_P2
2023/01/09 00:01:33;;;;;;;0.40;0.35;;;15.90;70.80;;;;;;6246091;23;20024;-68
2023/01/09 00:03:59;;;;;;;0.90;0.35;;;16.20;95.00;;;;;;6246009;23;20107;-68
2023/01/09 00:06:25;;;;;;;0.93;0.40;;;;;;;;;;6255600;23;20004;-68
2023/01/09 00:08:52;;;;;;;1.38;0.50;;;;;;;;;;6245620;23;20454;-68
2023/01/09 00:11:18;;;;;;;0.90;0.50;;;;;;;;;;6245864;23;20007;-68
2023/01/09 00:13:45;;;;;;;0.73;0.40;;;16.10;94.80;;;;;;6246021;23;20301;-68
2023/01/09 00:16:12;;;;;;;1.10;0.70;;;16.10;64.00;;;;;;6246017;23;20006;-68
2023/01/09 00:18:38;;;;;;;1.45;0.50;;;;;;;;;;6246322;23;20076;-68
2023/01/09 00:21:07;;;;;;;2.42;0.45;;;16.00;94.90;;;;;;6245857;23;20352;-68
2023/01/09 00:23:33;;;;;;;1.02;0.63;;;16.20;71.00;;;;;;6245761;23;20019;-68
2023/01/09 00:26:11;;;;;;;0.90;0.50;;;16.00;61.70;;;;;;6245216;23;20085;-68
2023/01/09 00:28:38;;;;;;;0.63;0.30;;;;;;;;;;6245847;23;20015;-68
2023/01/09 00:31:05;;;;;;;1.55;0.52;;;15.90;85.50;;;;;;6245431;23;20445;-68
2023/01/09 00:33:44;;;;;;;1.65;0.70;;;16.00;62.00;;;;;;6245889;23;19996;-68
2023/01/09 00:36:10;;;;;;;0.45;0.20;;;;;;;;;;6245837;23;20046;-68
2023/01/09 00:38:37;;;;;;;1.10;0.50;;;15.60;66.30;;;;;;6245718;23;20075;-68
2023/01/09 00:41:09;;;;;;;1.08;0.50;;;15.80;94.90;;;;;;6245725;23;19996;-68
2023/01/09 00:43:41;;;;;;;1.77;0.50;;;16.10;95.00;;;;;;6245255;23;20072;-68
2023/01/09 00:46:08;;;;;;;0.40;0.40;;;16.30;95.00;;;;;;6245670;23;20015;-68
2023/01/09 00:48:37;;;;;;;0.80;0.35;;;16.10;92.90;;;;;;6245648;23;20012;-68
2023/01/09 00:51:03;;;;;;;0.40;0.38;;;16.00;94.90;;;;;;6245803;23;20004;-77
2023/01/09 00:53:32;;;;;;;0.55;0.40;;;16.00;67.10;;;;;;6245696;23;20339;-77
2023/01/09 00:56:02;;;;;;;1.63;0.50;;;14.80;66.20;;;;;;6245611;23;20008;-76
2023/01/09 00:58:28;;;;;;;2.08;0.47;;;16.10;95.00;;;;;;6245660;23;20068;-77
2023/01/09 01:00:54;;;;;;;0.88;0.50;;;16.10;95.00;;;;;;6245517;23;20000;-77
2023/01/09 01:03:20;;;;;;;1.95;0.75;;;16.00;94.90;;;;;;6244831;23;20387;-77
2023/01/09 01:08:31;;;;;;;1.38;0.40;;;16.20;95.00;;;;;;6245408;23;20011;-77
2023/01/09 01:10:57;;;;;;;2.05;0.70;;;16.10;95.10;;;;;;6255757;23;19997;-77
2023/01/09 01:13:23;;;;;;;0.93;0.43;;;16.10;95.10;;;;;;6245144;23;20068;-77
2023/01/09 01:15:49;;;;;;;0.90;0.50;;;;;;;;;;6255321;23;20089;-77
2023/01/09 01:18:14;;;;;;;1.48;0.40;;;15.90;95.10;;;;;;6255335;23;19992;-77
2023/01/09 01:20:41;;;;;;;0.85;0.45;;;16.00;89.90;;;;;;6245409;23;20066;-77
2023/01/09 01:23:07;;;;;;;0.98;0.50;;;16.00;95.10;;;;;;6245361;23;20335;-77
2023/01/09 01:25:38;;;;;;;1.23;0.65;;;16.30;95.20;;;;;;6218107;23;20458;-77
2023/01/09 01:28:05;;;;;;;0.30;0.30;;;16.00;67.70;;;;;;6229110;23;20003;-77
2023/01/09 01:30:31;;;;;;;1.52;0.50;;;16.00;95.10;;;;;;6255208;23;20424;-77
2023/01/09 01:32:57;;;;;;;0.60;0.30;;;15.70;95.00;;;;;;6255210;23;20031;-77
2023/01/09 01:35:23;;;;;;;0.45;0.35;;;;;;;;;;6255165;23;20069;-77
2023/01/09 01:37:49;;;;;;;0.75;0.55;;;16.00;95.00;;;;;;6245296;23;20000;-77
2023/01/09 01:40:15;;;;;;;1.98;0.68;;;15.80;91.50;;;;;;6255154;23;20319;-77
2023/01/09 01:42:48;;;;;;;1.27;0.47;;;16.00;95.00;;;;;;6255161;23;20031;-77
2023/01/09 01:45:18;;;;;;;1.77;0.50;;;15.90;66.90;;;;;;6245187;23;20008;-77
2023/01/09 01:47:58;;;;;;;0.37;0.33;;;15.90;61.30;;;;;;6255144;23;20054;-77
2023/01/09 01:50:26;;;;;;;0.47;0.35;;;15.70;73.80;;;;;;6255163;23;19993;-77
2023/01/09 01:53:21;;;;;;;1.85;0.75;;;16.00;72.40;;;;;;6254969;23;20004;-77
2023/01/09 01:56:09;;;;;;;2.88;0.40;;;16.00;95.10;;;;;;6254946;23;20071;-77
2023/01/09 01:58:41;;;;;;;1.33;0.55;;;15.90;95.10;;;;;;6255172;23;20054;-77
2023/01/09 02:01:07;;;;;;;1.40;0.50;;;;;;;;;;6255003;23;19992;-77
2023/01/09 02:03:33;;;;;;;0.85;0.32;;;;;;;;;;6254813;23;20015;-77
2023/01/09 02:05:59;;;;;;;1.58;0.43;;;16.10;95.10;;;;;;6254988;23;20008;-77
2023/01/09 02:08:24;;;;;;;1.25;0.55;;;15.90;95.10;;;;;;6254914;23;20003;-77
2023/01/09 02:10:50;;;;;;;0.98;0.43;;;;;;;;;;6255026;23;20129;-77
2023/01/09 02:13:17;;;;;;;1.08;0.68;;;15.90;94.90;;;;;;6254899;23;20003;-77
2023/01/09 02:16:02;;;;;;;0.65;0.47;;;15.80;95.10;;;;;;6248681;23;20004;-77
2023/01/09 02:18:50;;;;;;;0.73;0.43;;;15.80;67.30;;;;;;6252770;23;20008;-77
2023/01/09 02:21:18;;;;;;;1.30;0.50;;;15.90;95.20;;;;;;6254904;23;19992;-77
2023/01/09 02:24:08;;;;;;;1.05;0.38;;;16.10;64.40;;;;;;6254977;23;19997;-77
2023/01/09 02:26:42;;;;;;;0.70;0.40;;;15.90;95.20;;;;;;6254924;23;20015;-77
2023/01/09 02:29:19;;;;;;;1.92;0.57;;;15.80;63.50;;;;;;6254747;23;20102;-77
2023/01/09 02:32:09;;;;;;;0.55;0.40;;;16.00;95.30;;;;;;6254849;23;20006;-77
2023/01/09 02:35:11;;;;;;;0.65;0.30;;;15.60;77.60;;;;;;6254757;23;19992;-77
2023/01/09 02:37:43;;;;;;;1.05;0.40;;;15.90;95.30;;;;;;6244838;23;20042;-77
2023/01/09 02:40:24;;;;;;;1.25;0.43;;;15.50;95.30;;;;;;6254774;23;20027;-77
2023/01/09 02:42:51;;;;;;;1.85;0.47;;;15.80;67.80;;;;;;6254819;23;20000;-77
2023/01/09 02:45:17;;;;;;;1.75;0.57;;;;;;;;;;6254558;23;20447;-77
2023/01/09 02:47:45;;;;;;;1.92;0.60;;;15.80;67.90;;;;;;6254701;23;20071;-77
2023/01/09 02:50:19;;;;;;;1.63;0.40;;;15.50;95.30;;;;;;6254887;23;19993;-77
2023/01/09 02:53:04;;;;;;;2.15;0.73;;;15.60;66.30;;;;;;6254890;23;20000;-77
2023/01/09 02:55:42;;;;;;;0.60;0.47;;;15.80;62.60;;;;;;6244515;23;20027;-77
2023/01/09 02:58:20;;;;;;;0.60;0.52;;;15.80;72.60;;;;;;6244608;23;20000;-77
2023/01/09 03:00:48;;;;;;;2.38;0.57;;;15.70;68.10;;;;;;6245066;23;20004;-77
2023/01/09 03:03:35;;;;;;;1.80;0.70;;;15.70;95.30;;;;;;6244212;23;20019;-77
2023/01/09 03:06:11;;;;;;;1.30;0.50;;;15.80;95.30;;;;;;6244353;23;20012;-77
2023/01/09 03:08:42;;;;;;;0.85;0.43;;;15.70;95.40;;;;;;6246762;23;20605;-77
2023/01/09 03:11:10;;;;;;;0.70;0.32;;;15.70;67.70;;;;;;6246702;23;20000;-77
2023/01/09 03:13:48;;;;;;;1.35;0.60;;;15.60;95.30;;;;;;6246669;23;19996;-77
2023/01/09 03:16:19;;;;;;;1.40;0.65;;;15.70;67.80;;;;;;6246643;23;20035;-77
2023/01/09 03:18:49;;;;;;;2.03;0.50;;;15.50;95.20;;;;;;6246625;23;19992;-77
2023/01/09 03:21:15;;;;;;;0.93;0.40;;;;;;;;;;6246772;23;20000;-77
2023/01/09 03:23:50;;;;;;;2.30;0.50;;;15.80;62.50;;;;;;6246556;23;20622;-77
2023/01/09 03:26:17;;;;;;;0.73;0.32;;;15.50;84.40;;;;;;6246111;23;20004;-77
2023/01/09 03:28:44;;;;;;;3.05;0.40;;;15.60;95.30;;;;;;6246492;23;19992;-77
2023/01/09 03:31:10;;;;;;;1.55;0.47;;;;;;;;;;6246120;23;20148;-77
2023/01/09 03:33:36;;;;;;;1.50;0.52;;;;;;;;;;6246080;23;20008;-77
2023/01/09 03:36:03;;;;;;;1.63;0.63;;;;;;;;;;6246459;23;20001;-77
2023/01/09 03:38:29;;;;;;;2.95;1.00;;;;;;;;;;6246520;23;20028;-77
2023/01/09 03:40:55;;;;;;;2.38;0.73;;;15.70;95.40;;;;;;6246130;23;20453;-77
2023/01/09 03:43:22;;;;;;;0.98;0.50;;;;;;;;;;6246324;23;20004;-77
2023/01/09 03:45:48;;;;;;;5.38;0.50;;;;;;;;;;6245853;23;20443;-77
2023/01/09 03:48:14;;;;;;;1.15;0.40;;;15.70;95.50;;;;;;6246354;23;19997;-77
2023/01/09 03:50:44;;;;;;;1.42;0.52;;;15.70;95.40;;;;;;6245665;23;19996;-77
2023/01/09 03:53:14;;;;;;;1.00;0.40;;;15.60;66.10;;;;;;6245946;23;19992;-77
2023/01/09 03:55:45;;;;;;;3.13;0.40;;;15.60;76.10;;;;;;6246413;23;20122;-77
2023/01/09 03:58:12;;;;;;;2.13;0.40;;;;;;;;;;6246256;23;20567;-77
2023/01/09 04:00:39;;;;;;;1.15;0.50;;;15.50;67.40;;;;;;6246216;23;20058;-77
2023/01/09 04:03:06;;;;;;;2.42;0.75;;;15.70;95.40;;;;;;6245549;23;20016;-77
2023/01/09 04:05:34;;;;;;;1.83;0.50;;;15.70;95.20;;;;;;6246087;23;20391;-77
2023/01/09 04:08:01;;;;;;;2.30;0.60;;;15.60;67.10;;;;;;6246218;23;20000;-76
2023/01/09 04:10:27;;;;;;;0.95;0.40;;;15.70;95.50;;;;;;6246121;23;20020;-78
2023/01/09 04:12:53;;;;;;;1.90;0.50;;;;;;;;;;6245835;23;20423;-77
2023/01/09 04:15:20;;;;;;;1.55;0.50;;;;;;;;;;6246054;23;20010;-77
2023/01/09 04:17:46;;;;;;;1.23;0.50;;;;;;;;;;6245877;23;20046;-77
2023/01/09 04:20:13;;;;;;;0.63;0.45;;;;;;;;;;6245677;23;20420;-77
2023/01/09 04:22:38;;;;;;;1.40;0.40;;;15.50;95.50;;;;;;6246008;23;20083;-77
2023/01/09 04:25:05;;;;;;;3.53;0.75;;;15.60;95.40;;;;;;6245922;23;20004;-77
2023/01/09 04:27:31;;;;;;;1.83;0.47;;;;;;;;;;6245832;23;20012;-77
2023/01/09 04:29:58;;;;;;;1.42;0.38;;;;;;;;;;6245916;23;20061;-77
2023/01/09 04:32:26;;;;;;;1.00;0.47;;;;;;;;;;6246013;23;20067;-77
2023/01/09 04:34:53;;;;;;;0.95;0.30;;;15.50;65.00;;;;;;6245837;23;20301;-77
2023/01/09 04:37:20;;;;;;;0.95;0.30;;;15.60;95.60;;;;;;6245564;23;20067;-77
2023/01/09 04:39:46;;;;;;;1.60;0.60;;;;;;;;;;6245453;23;20000;-77
2023/01/09 04:42:13;;;;;;;1.65;0.40;;;15.60;95.50;;;;;;6245436;23;20024;-77
2023/01/09 04:44:39;;;;;;;2.08;0.50;;;15.60;95.60;;;;;;6245788;23;20046;-77
2023/01/09 04:47:05;;;;;;;1.17;0.60;;;15.60;95.70;;;;;;6245272;23;20340;-77
2023/01/09 04:49:31;;;;;;;1.92;0.45;;;15.60;95.70;;;;;;6245798;23;20002;-77
2023/01/09 04:51:57;;;;;;;2.47;0.55;;;15.60;95.50;;;;;;6218660;23;20530;-77
2023/01/09 04:54:24;;;;;;;1.30;0.50;;;;;;;;;;6245277;23;20505;-77
2023/01/09 04:56:50;;;;;;;0.65;0.50;;;;;;;;;;6245152;23;20004;-77
2023/01/09 04:59:16;;;;;;;0.65;0.35;;;;;;;;;;6245519;23;20071;-77
2023/01/09 05:01:42;;;;;;;0.45;0.30;;;;;;;;;;6214790;22;20138;-76
2023/01/09 05:07:30;;;;;;;1.92;0.50;;;;;;;;;;6255536;23;20019;-77
2023/01/09 05:09:55;;;;;;;0.75;0.40;;;15.70;95.60;;;;;;6255553;23;20000;-77
2023/01/09 05:12:21;;;;;;;0.82;0.40;;;15.70;95.60;;;;;;6255572;23;19996;-77
2023/01/09 05:14:47;;;;;;;0.55;0.40;;;;;;;;;;6255580;23;20471;-77
2023/01/09 05:17:13;;;;;;;0.88;0.50;;;;;;;;;;6255425;23;19992;-76
2023/01/09 05:19:39;;;;;;;1.15;0.40;;;;;;;;;;6255383;23;20439;-71
2023/01/09 05:22:05;;;;;;;0.93;0.57;;;;;;;;;;6255305;23;19996;-71
2023/01/09 05:24:31;;;;;;;0.60;0.40;;;15.70;95.50;;;;;;6245466;23;20028;-71
2023/01/09 05:26:57;;;;;;;1.10;0.68;;;;;;;;;;6255197;23;20004;-71
2023/01/09 05:29:23;;;;;;;0.70;0.40;;;;;;;;;;6255023;23;20049;-70
2023/01/09 05:31:50;;;;;;;1.02;0.60;;;;;;;;;;6255169;23;20453;-70
2023/01/09 05:34:15;;;;;;;0.93;0.30;;;15.70;95.50;;;;;;6255220;22;20446;-70
2023/01/09 05:36:41;;;;;;;0.98;0.40;;;;;;;;;;6245437;23;20050;-76
2023/01/09 05:39:07;;;;;;;0.95;0.45;;;;;;;;;;6255242;23;20031;-76
2023/01/09 05:41:33;;;;;;;1.05;0.60;;;;;;;;;;6255180;23;20000;-76
2023/01/09 05:43:59;;;;;;;2.03;0.65;;;;;;;;;;6255183;23;20003;-76
2023/01/09 05:46:25;;;;;;;2.30;0.50;;;;;;;;;;6245277;23;20008;-76
2023/01/09 05:48:51;;;;;;;2.67;0.52;;;;;;;;;;6255228;23;19992;-76
2023/01/09 05:51:17;;;;;;;2.88;0.68;;;;;;;;;;6255219;23;20003;-76
2023/01/09 05:53:43;;;;;;;1.23;0.57;;;;;;;;;;6255141;23;20001;-76
2023/01/09 05:56:09;;;;;;;1.65;0.55;;;;;;;;;;6255022;23;20054;-76
2023/01/09 05:58:35;;;;;;;2.42;0.68;;;;;;;;;;6255145;23;20016;-76
2023/01/09 06:01:01;;;;;;;1.95;0.57;;;;;;;;;;6255054;23;20004;-76
2023/01/09 06:03:27;;;;;;;5.68;0.63;;;;;;;;;;6254867;23;20008;-77
2023/01/09 06:05:53;;;;;;;0.80;0.30;;;;;;;;;;6254831;23;20000;-77
2023/01/09 06:08:19;;;;;;;2.28;0.60;;;;;;;;;;6254985;23;20431;-77
2023/01/09 06:10:46;;;;;;;1.45;0.60;;;15.60;66.00;;;;;;6255041;23;20000;-76
2023/01/09 06:13:12;;;;;;;4.18;0.60;;;;;;;;;;6255177;22;20067;-77
2023/01/09 06:15:38;;;;;;;2.88;0.85;;;15.60;95.60;;;;;;6255170;23;20118;-76
2023/01/09 06:18:03;;;;;;;2.00;0.52;;;15.60;95.60;;;;;;6254628;22;20000;-77
2023/01/09 06:20:30;;;;;;;3.97;0.82;;;;;;;;;;6243233;23;20069;-76
2023/01/09 06:22:56;;;;;;;2.05;0.60;;;;;;;;;;6254872;23;19992;-72
2023/01/09 06:25:22;;;;;;;2.60;0.55;;;15.70;95.50;;;;;;6246374;23;19996;-76
2023/01/09 06:27:50;;;;;;;1.60;0.68;;;;;;;;;;6251641;23;20012;-77
2023/01/09 06:30:18;;;;;;;3.50;0.77;;;15.80;68.40;;;;;;6245224;22;20356;-73
2023/01/09 06:32:46;;;;;;;1.67;0.55;;;15.70;95.60;;;;;;6244781;22;20491;-77
2023/01/09 06:35:12;;;;;;;2.13;0.57;;;15.70;95.70;;;;;;6244783;22;19992;-76
2023/01/09 06:37:38;;;;;;;2.30;0.60;;;;;;;;;;6244692;23;19996;-78
2023/01/09 06:40:05;;;;;;;1.38;0.60;;;15.60;95.50;;;;;;6245118;23;20004;-78
2023/01/09 06:42:31;;;;;;;1.67;0.82;;;;;;;;;;6256193;22;20012;-80
2023/01/09 06:44:57;;;;;;;1.23;0.50;;;;;;;;;;6246559;23;20415;-78
2023/01/09 06:47:24;;;;;;;5.07;0.65;;;;;;;;;;6246592;23;20008;-78
2023/01/09 06:49:50;;;;;;;1.77;0.80;;;;;;;;;;6256789;23;20049;-70
2023/01/09 06:52:16;;;;;;;2.70;0.85;;;;;;;;;;6256518;23;20335;-70
2023/01/09 06:54:41;;;;;;;1.15;0.52;;;;;;;;;;6256767;23;19993;-70
2023/01/09 06:57:07;;;;;;;1.45;0.50;;;15.70;95.60;;;;;;6256641;23;20423;-70
2023/01/09 06:59:33;;;;;;;2.40;0.60;;;;;;;;;;6256723;23;20027;-70
2023/01/09 07:01:59;;;;;;;1.20;0.40;;;;;;;;;;6256319;23;20004;-70
2023/01/09 07:04:25;;;;;;;1.73;0.70;;;;;;;;;;6256638;23;19992;-70
2023/01/09 07:06:51;;;;;;;2.15;0.30;;;;;;;;;;6256531;23;20442;-70
2023/01/09 07:09:17;;;;;;;1.50;0.50;;;;;;;;;;6256843;23;19999;-79
2023/01/09 07:11:43;;;;;;;1.55;0.63;;;;;;;;;;6246917;23;20311;-76
2023/01/09 07:14:09;;;;;;;3.88;0.60;;;;;;;;;;6262308;23;19996;-79
2023/01/09 07:16:35;;;;;;;2.50;0.80;;;;;;;;;;6260343;23;20000;-77
2023/01/09 07:19:01;;;;;;;2.67;0.65;;;;;;;;;;6255806;23;20088;-77
2023/01/09 07:21:27;;;;;;;1.08;0.63;;;;;;;;;;6256575;23;20000;-78
2023/01/09 07:23:53;;;;;;;1.65;0.60;;;;;;;;;;6246746;23;20327;-78
2023/01/09 07:26:19;;;;;;;0.70;0.50;;;;;;;;;;6256439;23;20008;-70
2023/01/09 07:28:45;;;;;;;2.25;0.65;;;;;;;;;;6244707;23;20004;-70
2023/01/09 07:31:11;;;;;;;0.85;0.43;;;;;;;;;;6256341;23;20047;-71
2023/01/09 07:33:37;;;;;;;1.13;0.60;;;;;;;;;;6256309;23;20461;-71
2023/01/09 07:36:03;;;;;;;2.13;0.52;;;15.60;81.80;;;;;;6244452;23;20075;-71
2023/01/09 07:38:30;;;;;;;1.77;0.30;;;;;;;;;;6256204;23;20027;-70
2023/01/09 07:40:57;;;;;;;1.23;0.60;;;15.60;95.80;;;;;;6256303;22;19996;-71
2023/01/09 07:43:22;;;;;;;2.15;0.55;;;15.50;95.70;;;;;;6256211;22;19992;-69
2023/01/09 07:45:48;;;;;;;1.63;0.40;;;;;;;;;;6256389;23;20034;-81
2023/01/09 07:48:14;;;;;;;1.02;0.40;;;15.60;95.90;;;;;;6256472;23;20001;-78
2023/01/09 07:50:39;;;;;;;3.40;0.50;;;15.60;95.90;;;;;;6256078;23;19996;-77
2023/01/09 07:53:06;;;;;;;3.15;0.60;;;;;;;;;;6246303;23;20003;-77
2023/01/09 07:55:32;;;;;;;2.55;0.60;;;15.50;96.00;;;;;;6246195;23;20004;-77
2023/01/09 07:57:58;;;;;;;2.28;0.60;;;;;;;;;;6246100;23;20001;-77
2023/01/09 08:00:25;;;;;;;1.90;0.50;;;;;;;;;;6246375;23;20075;-77
2023/01/09 08:02:54;;;;;;;2.08;0.50;;;15.50;69.30;;;;;;6245904;23;20520;-70
2023/01/09 08:05:20;;;;;;;1.33;0.43;;;15.20;95.80;;;;;;6246370;22;20304;-78
2023/01/09 08:07:49;;;;;;;3.08;0.50;;;;;;;;;;6246432;22;20016;-77
2023/01/09 08:10:18;;;;;;;0.82;0.32;;;15.50;90.90;;;;;;6246694;22;20003;-78
2023/01/09 08:12:45;;;;;;;1.85;0.55;;;15.50;67.50;;;;;;6244896;23;19996;-77
2023/01/09 08:15:12;;;;;;;4.38;0.77;;;;;;;;;;6246320;22;20007;-78
2023/01/09 08:17:40;;;;;;;1.13;0.30;;;15.50;95.90;;;;;;6246380;23;20042;-78
2023/01/09 08:20:09;;;;;;;2.58;0.50;;;15.50;66.80;;;;;;6246471;22;20304;-78
2023/01/09 08:22:35;;;;;;;2.17;0.60;;;15.40;95.80;;;;;;6246232;22;20000;-70
2023/01/09 08:25:02;;;;;;;2.72;0.88;;;15.60;95.90;;;;;;6243852;23;20443;-70
2023/01/09 08:27:28;;;;;;;2.15;0.45;;;15.50;95.90;;;;;;6243712;23;20012;-70
2023/01/09 08:29:54;;;;;;;11.90;0.77;;;15.50;96.00;;;;;;6244082;23;20462;-69
2023/01/09 08:32:20;;;;;;;3.15;0.70;;;;;;;;;;6244467;23;20007;-70
2023/01/09 08:34:46;;;;;;;3.17;0.60;;;;;;;;;;6244509;23;20004;-69
2023/01/09 08:37:13;;;;;;;2.17;0.50;;;;;;;;;;6245451;23;20011;-69
2023/01/09 08:39:39;;;;;;;2.60;0.57;;;;;;;;;;6245527;22;20003;-69
2023/01/09 08:47:34;;;;;;;6.60;0.90;;;15.40;95.90;;;;;;6255984;23;20019;-77
2023/01/09 08:50:00;;;;;;;6.60;0.70;;;15.40;95.80;;;;;;6245679;23;20016;-77
2023/01/09 08:52:28;;;;;;;5.65;0.85;;;15.60;95.80;;;;;;6246195;22;20319;-77
2023/01/09 08:54:55;;;;;;;3.63;0.70;;;;;;;;;;6246092;22;19996;-77
2023/01/09 08:57:21;;;;;;;2.40;0.82;;;;;;;;;;6246331;23;20000;-77
2023/01/09 08:59:47;;;;;;;5.35;0.80;;;15.50;95.80;;;;;;6246111;23;20398;-78
2023/01/09 09:02:13;;;;;;;7.25;0.68;;;15.60;95.70;;;;;;6245371;23;20004;-78
2023/01/09 09:04:40;;;;;;;2.58;0.68;;;;;;;;;;6245146;22;19996;-74
2023/01/09 09:07:07;;;;;;;3.38;0.55;;;;;;;;;;6245704;23;20012;-78
2023/01/09 09:09:33;;;;;;;3.67;0.80;;;;;;;;;;6245935;23;20004;-78
2023/01/09 09:11:59;;;;;;;4.95;0.80;;;;;;;;;;6245756;23;20085;-79
2023/01/09 09:17:10;;;;;;;2.03;0.80;;;;;;;;;;6255828;23;20377;-71
2023/01/09 09:19:38;;;;;;;4.25;0.98;;;;;;;;;;6246937;23;19996;-70
2023/01/09 09:22:04;;;;;;;2.70;0.80;;;15.30;95.60;;;;;;6245470;22;20004;-70
2023/01/09 09:24:30;;;;;;;4.95;0.80;;;15.30;95.70;;;;;;6245461;23;19996;-69
2023/01/09 09:26:56;;;;;;;2.33;0.65;;;;;;;;;;6245342;23;20014;-69
2023/01/09 09:29:23;;;;;;;3.13;1.02;;;;;;;;;;6244986;23;19996;-71
2023/01/09 09:31:49;;;;;;;3.33;0.90;;;;;;;;;;6244846;23;20092;-69
2023/01/09 09:34:15;;;;;;;2.90;0.80;;;;;;;;;;6245050;22;20049;-69
2023/01/09 09:36:41;;;;;;;3.90;0.75;;;15.60;95.80;;;;;;6244923;23;20435;-70
2023/01/09 09:39:08;;;;;;;2.35;0.80;;;15.60;95.80;;;;;;6245295;23;20063;-71
2023/01/09 09:45:05;;;;;;;2.55;0.57;;;15.50;63.60;;;;;;6255201;23;20011;-69
2023/01/09 09:47:31;;;;;;;1.48;0.70;;;;;;;;;;6255157;22;20008;-69
2023/01/09 09:50:23;;;;;;;1.55;0.60;;;15.60;85.60;;;;;;6255010;23;20524;-69
2023/01/09 09:53:18;;;;;;;1.30;0.52;;;15.80;68.00;;;;;;6255117;22;20061;-69
2023/01/09 09:55:47;;;;;;;3.20;0.63;;;15.50;69.00;;;;;;6221146;22;20000;-72
2023/01/09 09:58:44;;;;;;;1.58;0.68;;;15.10;68.60;;;;;;6245174;22;20000;-72
2023/01/09 10:01:15;;;;;;;4.75;0.77;;;15.60;69.10;;;;;;6245115;23;20064;-73
2023/01/09 10:03:47;;;;;;;0.88;0.50;;;15.60;96.00;;;;;;6244668;22;20043;-73
2023/01/09 10:06:32;;;;;;;1.88;0.50;;;15.60;95.80;;;;;;6244789;22;20485;-73
2023/01/09 10:09:16;;;;;;;4.63;1.05;;;15.50;95.90;;;;;;6244075;22;19996;-73
2023/01/09 10:12:44;;;;;;;2.28;0.85;;;15.50;63.70;;;;;;6244911;22;20000;-69
2023/01/09 10:15:17;;;;;;;5.85;0.70;;;15.50;63.80;;;;;;6143780;23;20002;-73
2023/01/09 10:17:54;;;;;;;3.85;1.27;;;15.60;80.40;;;;;;6232484;22;20007;-72
2023/01/09 10:20:23;;;;;;;2.70;1.02;;;15.50;63.60;;;;;;6247256;22;20146;-72
2023/01/09 10:23:14;;;;;;;5.72;0.73;;;15.40;63.50;;;;;;6247100;23;20000;-75
2023/01/09 10:25:58;;;;;;;2.92;0.80;;;15.60;95.90;;;;;;6247142;22;20022;-73
2023/01/09 10:28:55;;;;;;;2.63;0.70;;;15.30;95.80;;;;;;6256980;23;20458;-76
2023/01/09 10:31:30;;;;;;;4.43;0.88;;;15.50;63.60;;;;;;6257378;22;19996;-69
2023/01/09 10:34:15;;;;;;;3.50;0.75;;;15.70;95.90;;;;;;6257124;22;20022;-69
2023/01/09 10:37:08;;;;;;;2.67;0.85;;;15.60;95.90;;;;;;6245131;23;20058;-69
2023/01/09 10:39:59;;;;;;;2.50;0.90;;;15.50;63.70;;;;;;6257024;22;20039;-69
2023/01/09 10:42:39;;;;;;;3.33;0.80;;;15.20;95.90;;;;;;6257010;23;20019;-70
2023/01/09 10:45:12;;;;;;;2.30;1.10;;;15.60;85.20;;;;;;6256840;22;19997;-70
2023/01/09 10:47:39;;;;;;;2.13;0.85;;;15.50;68.90;;;;;;6256843;23;20008;-70
2023/01/09 10:50:36;;;;;;;4.00;1.10;;;15.50;63.80;;;;;;6246973;22;20002;-70
2023/01/09 10:53:19;;;;;;;5.40;1.38;;;15.50;69.00;;;;;;6255024;23;20004;-69
2023/01/09 10:55:46;;;;;;;3.85;1.10;;;15.60;68.90;;;;;;6255313;23;20439;-69
2023/01/09 10:58:16;;;;;;;4.53;1.10;;;15.60;96.00;;;;;;6256630;22;20046;-69
2023/01/09 11:00:42;;;;;;;3.42;0.70;;;15.60;95.90;;;;;;6256725;22;20004;-70
2023/01/09 11:03:12;;;;;;;3.20;1.13;;;15.60;95.90;;;;;;6246009;22;20516;-70
2023/01/09 11:05:38;;;;;;;3.57;1.10;;;;;;;;;;6256624;22;19999;-69
2023/01/09 11:08:13;;;;;;;2.15;0.70;;;15.60;95.70;;;;;;6256577;23;20000;-73
2023/01/09 11:10:54;;;;;;;3.45;0.70;;;15.50;63.60;;;;;;6246696;23;20031;-73
2023/01/09 11:13:32;;;;;;;4.65;1.00;;;15.60;63.80;;;;;;6246649;22;20087;-72
2023/01/09 11:16:17;;;;;;;2.53;0.90;;;15.50;96.00;;;;;;6246659;22;20075;-74
2023/01/09 11:18:51;;;;;;;3.30;1.25;;;15.60;64.00;;;;;;6246309;23;20024;-74
2023/01/09 11:21:38;;;;;;;3.70;0.88;;;15.40;63.80;;;;;;6246214;22;20000;-74
2023/01/09 11:24:20;;;;;;;5.68;1.20;;;15.50;63.90;;;;;;6246595;22;19992;-75
2023/01/09 11:26:48;;;;;;;3.50;0.70;;;15.50;68.50;;;;;;6246458;22;20039;-74
2023/01/09 11:29:17;;;;;;;3.05;0.93;;;15.60;96.00;;;;;;6245757;22;20020;-75
2023/01/09 11:31:52;;;;;;;3.27;1.07;;;15.60;69.30;;;;;;6246649;22;20000;-74
2023/01/09 11:34:21;;;;;;;5.82;0.90;;;15.50;69.30;;;;;;6256298;22;20457;-75
2023/01/09 11:36:48;;;;;;;2.88;1.08;;;15.50;68.10;;;;;;6256431;22;20000;-75
2023/01/09 11:39:23;;;;;;;1.67;0.65;;;15.60;96.10;;;;;;6256312;22;20007;-76
2023/01/09 11:42:01;;;;;;;3.65;1.00;;;15.50;69.40;;;;;;6246558;22;20000;-75
2023/01/09 11:44:29;;;;;;;4.15;0.88;;;15.50;69.30;;;;;;6246460;22;20000;-73
2023/01/09 11:46:56;;;;;;;3.92;1.17;;;;;;;;;;6246350;22;20006;-73
2023/01/09 11:49:22;;;;;;;6.75;1.50;;;;;;;;;;6246160;23;20304;-72
2023/01/09 11:52:10;;;;;;;4.28;1.05;;;15.60;96.10;;;;;;6245932;23;20530;-72
2023/01/09 11:54:39;;;;;;;2.03;0.70;;;15.50;69.30;;;;;;6246413;23;20004;-77
2023/01/09 11:57:09;;;;;;;4.03;1.10;;;15.50;69.40;;;;;;6256283;22;20000;-77
2023/01/09 11:59:35;;;;;;;5.93;1.13;;;;;;;;;;6256298;22;20443;-77
2023/01/09 12:02:33;;;;;;;4.25;0.95;;;15.50;69.80;;;;;;6245779;23;20079;-70
2023/01/09 12:05:28;;;;;;;4.07;1.00;;;15.60;88.20;;;;;;6237587;23;19996;-78
2023/01/09 12:08:40;;;;;;;2.30;0.82;;;15.40;96.20;;;;;;6246462;22;20346;-78
2023/01/09 12:11:22;;;;;;;4.40;0.90;;;15.50;69.60;;;;;;6203142;22;20004;-77
2023/01/09 12:14:33;;;;;;;4.15;0.95;;;15.50;96.10;;;;;;6246075;22;20054;-77
2023/01/09 12:17:38;;;;;;;5.28;0.82;;;15.50;69.60;;;;;;6246177;22;20000;-76
2023/01/09 12:20:30;;;;;;;4.25;0.73;;;15.50;64.50;;;;;;6245581;22;19992;-77
2023/01/09 12:23:24;;;;;;;3.50;0.57;;;15.50;64.40;;;;;;6245431;22;20000;-71
2023/01/09 12:26:14;;;;;;;5.78;1.17;;;15.50;96.10;;;;;;6245551;23;20009;-69
2023/01/09 12:29:18;;;;;;;3.55;0.77;;;15.60;96.30;;;;;;6245657;22;19999;-69
2023/01/09 12:32:02;;;;;;;3.17;1.10;;;15.50;64.60;;;;;;6245925;23;20331;-71
2023/01/09 12:34:55;;;;;;;3.63;1.08;;;15.40;96.30;;;;;;6245793;23;20004;-73
2023/01/09 12:37:22;;;;;;;2.72;0.80;;;;;;;;;;6245559;22;20003;-69
2023/01/09 12:40:12;;;;;;;2.50;0.80;;;15.70;96.40;;;;;;6244997;22;20079;-73
2023/01/09 12:42:47;;;;;;;5.07;1.00;;;15.60;69.60;;;;;;6245972;23;20015;-75
2023/01/09 12:45:28;;;;;;;2.65;1.02;;;15.60;96.40;;;;;;6245825;23;20319;-76
2023/01/09 12:48:03;;;;;;;6.20;1.25;;;15.60;70.10;;;;;;6246063;23;20015;-77
2023/01/09 12:51:09;;;;;;;5.40;0.88;;;15.70;96.30;;;;;;6245579;22;20016;-77
2023/01/09 12:54:02;;;;;;;5.88;1.35;;;15.60;64.80;;;;;;6245299;23;20380;-77
2023/01/09 12:56:40;;;;;;;3.97;1.27;;;15.70;96.30;;;;;;6245553;23;20079;-77
2023/01/09 12:59:15;;;;;;;5.18;1.30;;;15.70;96.40;;;;;;6245961;22;20054;-77
2023/01/09 13:01:45;;;;;;;3.53;1.10;;;15.50;96.30;;;;;;6255042;23;20691;-76
2023/01/09 13:04:29;;;;;;;;;;;15.70;70.60;;;;;;6245500;22;20032;-73
2023/01/09 13:07:01;;;;;;;4.07;1.05;;;15.80;69.20;;;;;;6245261;23;19915;-77
2023/01/09 13:09:57;;;;;;;2.85;0.82;;;15.90;64.10;;;;;;6255296;22;19993;-77
2023/01/09 13:12:24;;;;;;;3.05;0.90;;;15.90;69.00;;;;;;6243300;23;20000;-75
2023/01/09 13:14:50;;;;;;;6.38;1.27;;;;;;;;;;6245277;22;20003;-76
2023/01/09 13:17:40;;;;;;;5.22;0.90;;;15.90;95.90;;;;;;6245396;23;20356;-71
2023/01/09 13:20:35;;;;;;;3.40;1.02;;;15.80;63.80;;;;;;6255167;22;20439;-69
2023/01/09 13:23:03;;;;;;;2.15;0.85;;;15.90;69.00;;;;;;6244847;22;20000;-70
2023/01/09 13:25:36;;;;;;;5.00;1.10;;;16.10;65.60;;;;;;6254855;22;20000;-70
2023/01/09 13:28:30;;;;;;;6.63;1.58;;;15.70;62.90;;;;;;6254774;23;20083;-69
2023/01/09 13:31:13;;;;;;;3.85;0.90;;;16.20;95.60;;;;;;6254775;22;19997;-71
2023/01/09 13:33:43;;;;;;;1.73;1.08;;;16.20;68.10;;;;;;6254983;23;20000;-71
2023/01/09 13:36:22;;;;;;;2.17;0.70;;;16.20;67.80;;;;;;6255199;22;20023;-73
2023/01/09 13:38:48;;;;;;;3.78;0.93;;;;;;;;;;6254794;22;20296;-74
2023/01/09 13:44:03;;;;;;;2.95;1.27;;;16.40;95.30;;;;;;6244775;23;20069;-76
2023/01/09 13:46:42;;;;;;;4.70;1.25;;;16.20;62.50;;;;;;6244929;22;20142;-76
2023/01/09 13:49:28;;;;;;;3.33;0.95;;;16.30;95.50;;;;;;6245099;22;20007;-75
2023/01/09 13:51:57;;;;;;;3.85;0.98;;;16.10;68.40;;;;;;6244276;22;19999;-76
2023/01/09 13:54:45;;;;;;;4.85;0.98;;;16.10;63.30;;;;;;6244721;22;19996;-76
2023/01/09 13:57:17;;;;;;;7.13;1.08;;;16.00;63.50;;;;;;6244962;23;20004;-76
2023/01/09 13:59:44;;;;;;;3.30;1.20;;;;;;;;;;6244732;23;19996;-76
2023/01/09 14:02:35;;;;;;;4.65;1.17;;;15.90;64.10;;;;;;6244240;22;20012;-79
2023/01/09 14:05:12;;;;;;;4.60;0.90;;;15.90;69.00;;;;;;6244986;22;20079;-77
2023/01/09 14:07:43;;;;;;;4.78;1.35;;;15.60;63.80;;;;;;6244879;22;20019;-76